Aérodrome :
LOGIN :

S'inscrire | Disclaimer

   EN    FR    IT 

 










Légende :    VFR   VFR Marginal   IFR   IFR Intensif   IFR Très Intensif
Visi : 
Plafond : 
>= 8 km
>= 3000ft
5 à 8 km
1000 à 3000 ft
1500m à 5 km
500 à 1000 ft
800 à 1500m
200 à 500 ft
< 800m
< 200 ft
Symboles :   Orages  Brouillard  Fortes neiges  Fortes précipitations  Vent > 20 kt
SIGMETs :   Divers  Orages  Givrage  Turbulence  Onde Orograph.  Cendres Volcan.







- Altitude de l'aérodrome : 1475 ft


LSZC - Buochs Stans

DERNIER METAR :
  • 242050Z AUTO 26004KT 230V300 CAVOK 15/09 Q1017

METARs EXPIRÉS :
  • 242020Z AUTO 27005KT CAVOK 15/09 Q1017
  • 241950Z AUTO 30004KT 260V340 CAVOK 15/09 Q1017
  • 241920Z AUTO 22005KT 160V310 CAVOK 16/10 Q1017
  • 241850Z AUTO 26005KT 230V310 CAVOK 16/10 Q1017
  • 241820Z AUTO 27005KT CAVOK 16/11 Q1016
  • 241750Z AUTO VRB02KT CAVOK 18/11 Q1016

TAF TAF LSZC
Valide du 24 à 15h jusqu'au 25 à 00h UTC


241425Z 2415/2424 10006KT CAVOK
TEMPO 2415/2418 9999 FEW040
Pas de NOTAMs connus pour ce terrain.



MET'MAP, la Météo Aéronautique d'un coup d'oeil ! - Copyright ORBIFLY Décembre 2007 - Disclaimer

ORBIFLY MET'MAP TEAM :

Programmation & Développement : Alexandra Zaïnal
Conception & Développement : Baudouin d'Aumeries
Co-Programmation & Développement : Marc-Olivier Méhu
Soutien technique & logistique : Manuel Goepfert

Contact : metmap@orbifly.com




SOURCES & CREDITS :

   NOAA